createdAt,value
2019-01-31T00:01:54.335Z,70.18
2019-01-31T00:04:55.584Z,70.49
2019-01-31T00:08:16.589Z,71.11
2019-01-31T00:11:16.165Z,71.78
2019-01-31T00:14:42.576Z,72.58
2019-01-31T00:17:51.755Z,73.14
2019-01-31T00:21:09.677Z,73.54
2019-01-31T00:24:14.886Z,73.84
2019-01-31T00:27:56.215Z,73.96
2019-01-31T00:31:49.181Z,74.08
2019-01-31T00:34:55.201Z,73.87
2019-01-31T00:38:13.961Z,73.96
2019-01-31T00:41:35.250Z,74.26
2019-01-31T00:45:20.474Z,74.44
2019-01-31T00:48:25.190Z,74.44
2019-01-31T00:51:52.002Z,74.47
2019-01-31T00:55:07.431Z,75.06
2019-01-31T00:58:20.359Z,75.24
2019-01-31T01:01:51.847Z,75.54
2019-01-31T01:05:11.190Z,76.02
2019-01-31T01:08:46.202Z,76.03
2019-01-31T01:12:04.511Z,75.97
2019-01-31T01:15:26.945Z,76.02
2019-01-31T01:18:15.761Z,75.81
2019-01-31T01:21:01.995Z,75.63
2019-01-31T01:24:10.189Z,75.67
2019-01-31T01:27:14.287Z,75.75
2019-01-31T01:30:44.882Z,75.48
2019-01-31T01:34:07.935Z,75.62
2019-01-31T01:37:12.713Z,75.77
2019-01-31T01:40:39.517Z,75.73
2019-01-31T01:43:34.961Z,76.07
2019-01-31T01:46:57.577Z,75.30
2019-01-31T01:50:03.175Z,75.66
2019-01-31T01:53:25.083Z,75.66
2019-01-31T01:57:21.306Z,76.05
2019-01-31T02:00:28.046Z,75.52
2019-01-31T02:03:56.504Z,75.69
2019-01-31T02:07:36.961Z,76.00
2019-01-31T02:10:35.336Z,75.89
2019-01-31T02:14:00.496Z,75.87
2019-01-31T02:17:12.665Z,75.94
2019-01-31T02:20:12.149Z,76.11
2019-01-31T02:23:44.594Z,75.86
2019-01-31T02:27:39.125Z,75.90
2019-01-31T02:31:19.322Z,75.87
2019-01-31T02:34:24.602Z,76.33
2019-01-31T02:37:53.609Z,76.46
2019-01-31T02:41:15.948Z,76.28
2019-01-31T02:44:42.421Z,76.07
2019-01-31T02:47:56.493Z,76.15
2019-01-31T02:50:48.256Z,76.26
2019-01-31T02:54:21.792Z,75.46
2019-01-31T02:57:50.644Z,76.14
2019-01-31T03:01:08.975Z,75.92
2019-01-31T03:04:30.758Z,75.64
2019-01-31T03:07:57.736Z,75.88
2019-01-31T03:10:46.137Z,76.09
2019-01-31T03:13:31.989Z,75.67
2019-01-31T03:17:13.409Z,75.47
2019-01-31T03:20:25.437Z,75.51
2019-01-31T03:23:48.601Z,75.55
2019-01-31T03:26:59.852Z,75.58
2019-01-31T03:30:48.964Z,75.55
2019-01-31T03:34:22.714Z,75.25
2019-01-31T03:37:47.751Z,75.49
2019-01-31T03:40:59.446Z,75.64
2019-01-31T03:44:02.263Z,75.55
2019-01-31T03:47:23.127Z,75.45
2019-01-31T03:50:51.558Z,75.15
2019-01-31T03:54:40.800Z,75.02
2019-01-31T03:57:56.738Z,75.38
2019-01-31T04:01:22.216Z,75.41
2019-01-31T04:04:05.663Z,75.37
2019-01-31T04:06:38.778Z,75.21
2019-01-31T04:09:12.302Z,75.38
2019-01-31T04:11:44.094Z,75.35
2019-01-31T04:14:15.929Z,75.18
2019-01-31T04:16:47.733Z,75.20
2019-01-31T04:19:19.551Z,74.93
2019-01-31T04:21:53.660Z,74.78
2019-01-31T04:24:25.492Z,74.49
2019-01-31T04:26:57.347Z,74.57
2019-01-31T04:29:29.151Z,74.35
2019-01-31T04:32:01.051Z,74.46
2019-01-31T04:34:32.859Z,74.71
2019-01-31T04:37:04.694Z,74.47
2019-01-31T04:39:36.490Z,74.20
2019-01-31T04:42:08.337Z,74.37
2019-01-31T04:44:40.160Z,74.27
2019-01-31T04:47:11.983Z,73.99
2019-01-31T04:49:43.833Z,74.58
2019-01-31T04:52:16.194Z,74.69
2019-01-31T04:54:48.032Z,74.57
2019-01-31T04:57:19.900Z,74.29
2019-01-31T04:59:51.748Z,74.02
2019-01-31T05:02:23.611Z,74.08
2019-01-31T05:04:55.409Z,74.06
2019-01-31T05:07:28.293Z,73.74
2019-01-31T05:10:00.474Z,74.17
2019-01-31T05:12:32.356Z,74.37
2019-01-31T05:15:04.470Z,74.29
2019-01-31T05:17:36.302Z,73.89
2019-01-31T05:20:12.417Z,74.54
2019-01-31T05:22:44.271Z,74.87
2019-01-31T05:25:17.564Z,74.38
2019-01-31T05:27:49.407Z,74.44
2019-01-31T05:30:21.240Z,74.27
2019-01-31T05:32:53.074Z,74.52
2019-01-31T05:35:24.903Z,74.66
2019-01-31T05:37:56.736Z,74.81
2019-01-31T05:40:28.541Z,75.18
2019-01-31T05:43:00.389Z,74.53
2019-01-31T05:45:32.253Z,74.34
2019-01-31T05:48:04.103Z,74.35
2019-01-31T05:50:35.933Z,74.48
2019-01-31T05:53:07.885Z,74.43
2019-01-31T05:55:41.421Z,74.53
2019-01-31T05:58:13.280Z,74.68
2019-01-31T06:00:48.357Z,74.59
2019-01-31T06:03:21.220Z,74.34
2019-01-31T06:05:53.020Z,74.58
2019-01-31T06:08:27.423Z,74.57
2019-01-31T06:11:07.613Z,74.33
2019-01-31T06:13:34.386Z,74.18
2019-01-31T06:16:06.897Z,74.13
2019-01-31T06:18:39.897Z,74.47
2019-01-31T06:21:14.345Z,74.24
2019-01-31T06:23:46.210Z,74.13
2019-01-31T06:26:19.731Z,73.80
2019-01-31T06:28:53.297Z,74.23
2019-01-31T06:31:27.440Z,74.22
2019-01-31T06:34:07.529Z,74.04
2019-01-31T06:36:46.183Z,74.08
2019-01-31T06:39:21.955Z,74.07
2019-01-31T06:41:57.926Z,74.06
2019-01-31T06:44:30.715Z,73.92
2019-01-31T06:47:02.562Z,73.92
2019-01-31T06:49:39.451Z,74.10
2019-01-31T06:52:12.278Z,73.73
2019-01-31T06:54:45.405Z,73.98
2019-01-31T06:57:17.238Z,74.05
2019-01-31T06:59:49.087Z,73.99
2019-01-31T07:02:26.674Z,74.28
2019-01-31T07:04:59.573Z,74.40
2019-01-31T07:07:34.802Z,73.27
2019-01-31T07:10:13.980Z,73.46
2019-01-31T07:12:45.804Z,73.92
2019-01-31T07:15:17.628Z,74.00
2019-01-31T07:17:56.887Z,73.99
2019-01-31T07:20:28.702Z,74.00
2019-01-31T07:23:00.522Z,74.71
2019-01-31T07:25:32.347Z,74.19
2019-01-31T07:28:31.525Z,74.56
2019-01-31T07:31:03.537Z,73.68
2019-01-31T07:33:35.418Z,73.79
2019-01-31T07:36:08.875Z,73.83
2019-01-31T07:38:46.794Z,73.86
2019-01-31T07:41:21.868Z,74.00
2019-01-31T07:43:56.275Z,73.54
2019-01-31T07:46:31.042Z,73.46
2019-01-31T07:49:03.858Z,72.43
2019-01-31T07:51:35.707Z,71.99
2019-01-31T07:54:07.650Z,72.56
2019-01-31T07:56:41.246Z,72.73
2019-01-31T07:59:13.110Z,72.36
2019-01-31T08:01:45.063Z,72.49
2019-01-31T08:04:16.903Z,72.47
2019-01-31T08:06:48.813Z,72.93
2019-01-31T08:09:20.640Z,73.25
2019-01-31T08:11:53.053Z,73.19
2019-01-31T08:14:24.956Z,72.95
2019-01-31T08:16:56.792Z,72.52
2019-01-31T08:19:28.630Z,73.20
2019-01-31T08:22:03.214Z,73.64
2019-01-31T08:24:37.472Z,73.70
2019-01-31T08:27:17.983Z,73.94
2019-01-31T08:29:52.473Z,74.27
2019-01-31T08:32:27.065Z,73.83
2019-01-31T08:34:58.849Z,72.79
2019-01-31T08:37:30.580Z,72.98
2019-01-31T08:40:03.980Z,72.78
2019-01-31T08:42:40.508Z,71.85
2019-01-31T08:45:13.470Z,70.08
2019-01-31T08:47:45.464Z,68.73
2019-01-31T08:50:21.749Z,67.87
2019-01-31T08:52:56.607Z,66.96
2019-01-31T08:55:28.505Z,65.31
2019-01-31T08:58:06.263Z,64.66
2019-01-31T09:00:38.182Z,64.19
2019-01-31T09:03:10.068Z,63.50
2019-01-31T09:05:43.622Z,63.92
2019-01-31T09:08:15.499Z,63.82
2019-01-31T09:13:30.225Z,63.53
2019-01-31T09:16:03.409Z,65.88
2019-01-31T09:18:38.508Z,67.67
2019-01-31T09:21:57.816Z,70.29
2019-01-31T09:25:49.146Z,70.32
2019-01-31T09:29:27.551Z,70.37
2019-01-31T09:32:52.394Z,70.70
2019-01-31T09:36:27.680Z,71.13
2019-01-31T09:39:52.872Z,71.04
2019-01-31T09:42:42.328Z,70.73
2019-01-31T09:46:00.971Z,71.09
2019-01-31T09:49:11.851Z,71.17
2019-01-31T09:52:10.067Z,71.73
2019-01-31T09:55:47.480Z,71.84
2019-01-31T09:58:39.043Z,72.11
2019-01-31T10:02:13.101Z,72.60
2019-01-31T10:05:42.428Z,72.51
2019-01-31T10:08:55.522Z,73.82
2019-01-31T10:12:01.196Z,74.42
2019-01-31T10:15:14.397Z,74.75
2019-01-31T10:18:42.406Z,74.84
2019-01-31T10:22:23.955Z,75.03
2019-01-31T10:25:54.939Z,74.97
2019-01-31T10:29:39.051Z,75.20
2019-01-31T10:32:55.520Z,75.24
2019-01-31T10:36:52.159Z,75.32
2019-01-31T10:39:58.793Z,75.61
2019-01-31T10:43:18.220Z,75.47
2019-01-31T10:46:31.539Z,75.54
2019-01-31T10:49:44.111Z,75.02
2019-01-31T10:53:14.503Z,74.58
2019-01-31T10:56:44.411Z,74.48
2019-01-31T10:59:33.371Z,72.82
2019-01-31T11:02:57.052Z,72.89
2019-01-31T11:06:31.929Z,73.18
2019-01-31T11:09:55.954Z,72.82
2019-01-31T11:13:32.763Z,72.79
2019-01-31T11:16:48.148Z,72.47
2019-01-31T11:20:08.949Z,72.48
2019-01-31T11:23:49.934Z,72.72
2019-01-31T11:27:29.474Z,72.86
2019-01-31T11:30:49.226Z,72.11
2019-01-31T11:34:32.997Z,71.58
2019-01-31T11:37:25.177Z,71.03
2019-01-31T11:40:44.511Z,70.44
2019-01-31T11:44:00.742Z,69.92
2019-01-31T11:47:01.336Z,70.18
2019-01-31T11:50:38.603Z,69.05
2019-01-31T11:53:51.660Z,68.47
2019-01-31T11:57:23.988Z,68.22
2019-01-31T11:59:56.013Z,68.92
2019-01-31T12:02:29.815Z,69.18
2019-01-31T12:05:01.657Z,69.42
2019-01-31T12:07:36.542Z,69.46
2019-01-31T12:10:07.903Z,68.92
2019-01-31T12:12:39.755Z,68.99
2019-01-31T12:15:11.923Z,69.29
2019-01-31T12:17:44.698Z,68.24
2019-01-31T12:20:17.437Z,67.69
2019-01-31T12:22:49.374Z,68.03
2019-01-31T12:25:21.288Z,67.77
2019-01-31T12:27:53.375Z,66.70
2019-01-31T12:30:27.619Z,68.58
2019-01-31T12:32:59.486Z,64.59
2019-01-31T12:35:31.332Z,65.23
2019-01-31T12:38:05.915Z,64.67
2019-01-31T12:40:37.765Z,65.70
2019-01-31T12:43:09.655Z,63.83
2019-01-31T12:45:41.265Z,63.43
2019-01-31T12:48:12.820Z,63.05
2019-01-31T12:50:44.731Z,62.33
2019-01-31T12:53:19.501Z,62.98
2019-01-31T12:55:53.299Z,63.59
2019-01-31T12:58:33.274Z,63.77
2019-01-31T13:00:58.240Z,62.59
2019-01-31T13:03:32.873Z,62.46
2019-01-31T13:06:05.173Z,61.49
2019-01-31T13:08:36.710Z,61.76
2019-01-31T13:11:11.879Z,62.57
2019-01-31T13:13:46.200Z,62.04
2019-01-31T13:16:17.174Z,61.22
2019-01-31T13:18:49.000Z,62.03
2019-01-31T13:21:20.986Z,61.91
2019-01-31T13:23:52.679Z,61.54
2019-01-31T13:26:24.889Z,63.01
2019-01-31T13:28:56.721Z,61.63
2019-01-31T13:31:28.595Z,62.40
2019-01-31T13:34:00.145Z,61.18
2019-01-31T13:36:33.210Z,60.96
2019-01-31T13:39:09.616Z,60.69
2019-01-31T13:41:42.067Z,60.94
2019-01-31T13:44:13.978Z,61.48
2019-01-31T13:46:45.558Z,60.76
2019-01-31T13:49:17.963Z,59.52
2019-01-31T13:51:50.018Z,59.57
2019-01-31T13:54:21.584Z,58.67
2019-01-31T13:56:53.091Z,59.07
2019-01-31T13:59:27.752Z,58.73
2019-01-31T14:01:59.617Z,57.51
2019-01-31T14:04:31.160Z,57.32
2019-01-31T14:07:03.809Z,57.38
2019-01-31T14:09:36.416Z,57.28
2019-01-31T14:12:07.961Z,58.17
2019-01-31T14:14:39.490Z,57.59
2019-01-31T14:17:11.308Z,57.75
2019-01-31T14:19:43.196Z,58.16
2019-01-31T14:22:14.775Z,58.48
2019-01-31T14:24:48.978Z,58.89
2019-01-31T14:27:20.958Z,57.78
2019-01-31T14:29:52.809Z,57.63
2019-01-31T14:32:26.709Z,57.35
2019-01-31T14:34:58.647Z,56.57
2019-01-31T14:37:30.221Z,56.30
2019-01-31T14:40:01.813Z,56.94
2019-01-31T14:42:36.036Z,57.02
2019-01-31T14:45:07.877Z,56.92
2019-01-31T14:47:39.440Z,56.06
2019-01-31T14:50:23.557Z,55.58
2019-01-31T14:52:57.111Z,55.52
2019-01-31T14:55:29.840Z,55.41
2019-01-31T14:58:06.195Z,55.37
2019-01-31T15:00:37.850Z,55.49
2019-01-31T15:03:11.425Z,55.12
2019-01-31T15:05:44.879Z,54.56
2019-01-31T15:08:17.837Z,54.48
2019-01-31T15:10:51.484Z,54.89
2019-01-31T15:13:24.827Z,55.29
2019-01-31T15:16:01.679Z,56.12
2019-01-31T15:18:36.438Z,56.81
2019-01-31T15:21:19.802Z,57.15
2019-01-31T15:23:54.127Z,57.11
2019-01-31T15:26:29.006Z,57.21
2019-01-31T15:29:11.869Z,57.38
2019-01-31T15:31:42.193Z,57.49
2019-01-31T15:34:13.809Z,57.56
2019-01-31T15:36:45.379Z,57.62
2019-01-31T15:39:19.014Z,57.73
2019-01-31T15:49:56.494Z,58.67
2019-01-31T15:52:28.359Z,58.93
2019-01-31T15:55:06.253Z,58.95
2019-01-31T15:57:40.714Z,59.51
2019-01-31T16:00:37.566Z,59.56
2019-01-31T16:03:13.901Z,60.57
2019-01-31T16:05:49.646Z,61.33
2019-01-31T16:08:21.696Z,62.07
2019-01-31T16:10:55.196Z,62.27
2019-01-31T16:13:27.055Z,62.42
2019-01-31T16:15:59.052Z,62.63
2019-01-31T16:18:33.757Z,62.67
2019-01-31T16:21:08.793Z,63.09
2019-01-31T16:23:45.815Z,63.66
2019-01-31T16:26:18.838Z,63.98
2019-01-31T16:28:54.768Z,64.67
2019-01-31T16:31:34.362Z,65.14
2019-01-31T16:34:07.313Z,65.57
2019-01-31T16:36:39.220Z,65.92
2019-01-31T16:39:12.740Z,66.71
2019-01-31T16:41:47.652Z,67.13
2019-01-31T16:44:19.619Z,67.28
2019-01-31T16:46:54.721Z,67.58
2019-01-31T16:49:29.036Z,67.99
2019-01-31T16:52:04.208Z,68.07
2019-01-31T16:54:43.412Z,68.41
2019-01-31T16:57:16.497Z,68.57
2019-01-31T16:59:51.627Z,68.27
2019-01-31T17:02:26.121Z,68.08
2019-01-31T17:04:57.945Z,68.28
2019-01-31T17:07:35.908Z,68.18
2019-01-31T17:10:11.511Z,68.31
2019-01-31T17:12:45.421Z,68.44
2019-01-31T17:15:21.584Z,68.14
2019-01-31T17:17:53.750Z,68.13
2019-01-31T17:20:46.690Z,68.51
2019-01-31T17:23:18.540Z,68.43
2019-01-31T17:25:51.747Z,68.48
2019-01-31T17:28:23.710Z,68.54
2019-01-31T17:30:55.667Z,68.32
2019-01-31T17:33:27.574Z,68.05
2019-01-31T17:36:00.547Z,68.10
2019-01-31T17:38:34.503Z,68.40
2019-01-31T17:41:06.415Z,68.24
2019-01-31T17:43:38.283Z,67.68
2019-01-31T17:46:12.949Z,67.42
2019-01-31T17:48:48.058Z,67.14
2019-01-31T17:51:23.750Z,68.85
2019-01-31T17:53:57.084Z,69.64
2019-01-31T17:56:29.043Z,69.79
2019-01-31T17:59:03.765Z,69.49
2019-01-31T18:01:36.022Z,69.51
2019-01-31T18:04:07.878Z,69.58
2019-01-31T18:06:41.124Z,69.66
2019-01-31T18:11:57.826Z,68.31
2019-01-31T18:14:29.707Z,68.44
2019-01-31T18:17:04.446Z,68.57
2019-01-31T18:19:36.441Z,68.31
2019-01-31T18:22:11.154Z,68.28
2019-01-31T18:24:42.999Z,68.83
2019-01-31T18:27:20.154Z,69.14
2019-01-31T18:29:51.995Z,69.21
2019-01-31T18:37:58.674Z,69.30
2019-01-31T18:40:38.185Z,69.59
2019-01-31T18:43:20.361Z,69.44
2019-01-31T18:45:53.813Z,69.11
2019-01-31T18:48:27.525Z,69.24
2019-01-31T18:51:17.638Z,69.10
2019-01-31T18:53:51.000Z,69.54
2019-01-31T18:56:25.908Z,69.11
2019-01-31T18:59:04.699Z,69.29
2019-01-31T19:01:51.668Z,69.45
2019-01-31T19:04:28.872Z,69.23
2019-01-31T19:07:01.866Z,68.99
2019-01-31T19:09:52.000Z,68.85
2019-01-31T19:12:32.556Z,68.91
2019-01-31T19:15:07.226Z,68.85
2019-01-31T19:17:43.006Z,68.90
2019-01-31T19:20:21.967Z,68.73
2019-01-31T19:22:55.525Z,68.81
2019-01-31T19:25:33.203Z,68.93
2019-01-31T19:28:08.007Z,68.83
2019-01-31T19:30:41.532Z,68.59
2019-01-31T19:33:13.433Z,68.80
2019-01-31T19:35:45.340Z,68.91
2019-01-31T19:38:17.213Z,68.95
2019-01-31T19:40:55.885Z,69.02
2019-01-31T19:43:36.645Z,68.44
2019-01-31T19:46:16.000Z,68.56
2019-01-31T19:48:43.822Z,68.67
2019-01-31T19:51:21.372Z,68.69
2019-01-31T19:53:54.475Z,68.07
2019-01-31T19:56:32.020Z,68.10
2019-01-31T19:59:06.629Z,68.07
2019-01-31T20:01:44.264Z,68.26
2019-01-31T20:04:16.094Z,68.21
2019-01-31T20:06:49.259Z,68.41
2019-01-31T20:09:24.682Z,68.01
2019-01-31T20:11:58.323Z,67.88
2019-01-31T20:14:32.246Z,67.93
2019-01-31T20:17:08.446Z,68.16
2019-01-31T20:19:46.315Z,67.94
2019-01-31T20:22:20.840Z,67.04
2019-01-31T20:24:58.409Z,67.59
2019-01-31T20:27:31.291Z,67.62
2019-01-31T20:30:03.625Z,68.20
2019-01-31T20:32:35.773Z,68.66
2019-01-31T20:35:10.825Z,68.73
2019-01-31T20:37:42.944Z,69.41
2019-01-31T20:40:18.551Z,69.58
2019-01-31T20:42:53.463Z,69.64
2019-01-31T20:45:25.334Z,69.16
2019-01-31T20:47:58.508Z,69.15
2019-01-31T20:50:35.942Z,68.60
2019-01-31T20:53:08.921Z,67.92
2019-01-31T20:55:40.928Z,68.01
2019-01-31T20:58:20.339Z,67.76
2019-01-31T21:00:57.081Z,67.55
2019-01-31T21:03:28.922Z,67.77
2019-01-31T21:06:02.510Z,67.20
2019-01-31T21:08:34.569Z,67.10
2019-01-31T21:11:09.362Z,67.06
2019-01-31T21:13:40.315Z,67.12
2019-01-31T21:16:15.326Z,67.57
2019-01-31T21:18:50.652Z,67.83
2019-01-31T21:21:22.518Z,67.01
2019-01-31T21:23:55.993Z,67.12
2019-01-31T21:26:27.821Z,67.11
2019-01-31T21:28:59.649Z,67.23
2019-01-31T21:31:34.318Z,67.58
2019-01-31T21:34:06.366Z,67.11
2019-01-31T21:39:33.352Z,67.46
2019-01-31T21:42:07.863Z,67.11
2019-01-31T21:44:38.982Z,67.12
2019-01-31T21:47:13.881Z,66.66
2019-01-31T21:49:52.048Z,66.89
2019-01-31T21:52:29.482Z,67.20
2019-01-31T21:55:01.332Z,67.34
2019-01-31T21:57:33.186Z,66.99
2019-01-31T22:00:11.439Z,66.53
2019-01-31T22:02:44.266Z,66.75
2019-01-31T22:05:16.705Z,66.69
2019-01-31T22:07:51.509Z,66.80
2019-01-31T22:10:25.665Z,66.52
2019-01-31T22:13:02.796Z,66.39
2019-01-31T22:15:34.401Z,66.28
2019-01-31T22:18:09.514Z,65.50
2019-01-31T22:20:41.360Z,64.87
2019-01-31T22:23:13.283Z,65.09
2019-01-31T22:25:46.610Z,64.90
2019-01-31T22:28:18.516Z,64.90
2019-01-31T22:30:50.410Z,64.79
2019-01-31T22:33:24.506Z,64.79
2019-01-31T22:35:59.541Z,63.10
2019-01-31T22:38:31.374Z,62.29
2019-01-31T22:41:05.964Z,62.85
2019-01-31T22:43:40.555Z,63.06
2019-01-31T22:46:12.475Z,63.36
2019-01-31T22:48:46.419Z,63.08
2019-01-31T22:51:20.288Z,62.73
2019-01-31T22:53:56.068Z,62.77
2019-01-31T22:56:30.289Z,62.76
2019-01-31T22:59:05.823Z,62.09
2019-01-31T23:01:47.935Z,62.52
2019-01-31T23:04:22.143Z,62.22
2019-01-31T23:06:56.140Z,62.36
2019-01-31T23:09:29.310Z,62.50
2019-01-31T23:12:12.392Z,62.41
2019-01-31T23:14:51.579Z,61.77
2019-01-31T23:17:36.937Z,60.76
2019-01-31T23:20:07.803Z,61.81
2019-01-31T23:22:41.482Z,61.08
2019-01-31T23:25:13.622Z,61.36
2019-01-31T23:27:46.498Z,61.97
2019-01-31T23:30:18.505Z,61.73
2019-01-31T23:32:50.385Z,61.51
2019-01-31T23:35:22.289Z,62.77
2019-01-31T23:37:55.253Z,62.53
2019-01-31T23:40:27.083Z,61.79
2019-01-31T23:42:58.889Z,61.48
2019-01-31T23:45:30.778Z,61.28
2019-01-31T23:48:04.514Z,61.12
2019-01-31T23:50:39.335Z,61.61
2019-01-31T23:53:13.475Z,61.79
2019-01-31T23:55:45.282Z,62.55
2019-01-31T23:58:19.420Z,63.22
